Time;durP1;ratioP1;P1;durP2;ratioP2;P2;SDS_P1;SDS_P2;PMS_P1;PMS_P2;Temp;Humidity;BMP_temperature;BMP_pressure;BME280_temperature;BME280_humidity;BME280_pressure;Samples;Min_cycle;Max_cycle;Signal;HPM_P1;HPM_P2
2023/03/11 00:00:31;;;;;;;11.45;3.25;;;0.30;99.90;;;;;;6274526;22;20016;-82
2023/03/11 00:02:58;;;;;;;11.05;3.33;;;0.30;99.90;;;;;;6274369;22;20104;-83
2023/03/11 00:05:25;;;;;;;13.15;3.50;;;0.30;99.90;;;;;;6247100;22;20071;-83
2023/03/11 00:07:51;;;;;;;12.50;3.63;;;0.30;99.90;;;;;;6274581;22;20010;-82
2023/03/11 00:10:21;;;;;;;11.95;3.10;;;0.30;99.90;;;;;;6246266;22;20012;-83
2023/03/11 00:12:46;;;;;;;11.93;3.47;;;0.30;99.90;;;;;;6246840;22;20102;-82
2023/03/11 00:15:12;;;;;;;14.02;3.22;;;0.30;99.90;;;;;;6247449;22;20447;-82
2023/03/11 00:17:38;;;;;;;10.82;2.90;;;0.30;99.90;;;;;;6274301;22;20057;-83
2023/03/11 00:20:06;;;;;;;12.43;2.97;;;0.20;99.90;;;;;;6274240;22;20074;-83
2023/03/11 00:22:32;;;;;;;10.45;2.90;;;0.20;99.90;;;;;;6274035;22;20082;-82
2023/03/11 00:24:57;;;;;;;14.82;2.90;;;0.20;99.90;;;;;;6246496;22;20062;-83
2023/03/11 00:27:23;;;;;;;11.57;3.00;;;0.20;99.90;;;;;;6274274;22;20012;-83
2023/03/11 00:29:49;;;;;;;14.68;3.20;;;0.20;99.90;;;;;;6221367;22;20020;-82
2023/03/11 00:32:15;;;;;;;14.48;2.75;;;0.30;99.90;;;;;;6246747;22;20015;-82
2023/03/11 00:34:40;;;;;;;10.93;2.53;;;0.20;99.90;;;;;;6273655;22;20015;-82
2023/03/11 00:37:07;;;;;;;11.57;2.60;;;0.30;99.90;;;;;;6246954;22;20030;-83
2023/03/11 00:39:33;;;;;;;17.02;2.80;;;0.30;99.90;;;;;;6273478;22;20019;-83
2023/03/11 00:41:59;;;;;;;8.80;2.30;;;0.30;99.90;;;;;;6221726;22;20090;-82
2023/03/11 00:44:24;;;;;;;18.98;3.05;;;0.20;99.90;;;;;;6246473;22;20066;-83
2023/03/11 00:46:50;;;;;;;11.82;2.67;;;0.20;99.90;;;;;;6246818;22;20046;-83
2023/03/11 00:49:15;;;;;;;12.75;2.42;;;0.20;99.90;;;;;;6246835;22;20016;-83
2023/03/11 00:51:41;;;;;;;10.88;2.67;;;0.20;99.90;;;;;;6246841;22;20023;-83
2023/03/11 00:54:07;;;;;;;8.43;2.70;;;0.20;99.90;;;;;;6246376;22;20015;-83
2023/03/11 00:56:32;;;;;;;15.07;2.58;;;0.20;99.90;;;;;;6246948;22;20043;-83
2023/03/11 00:58:58;;;;;;;11.35;2.67;;;0.20;99.90;;;;;;6221810;22;20011;-83
2023/03/11 01:01:23;;;;;;;8.55;2.40;;;0.20;99.90;;;;;;6247106;22;20066;-82
2023/03/11 01:03:49;;;;;;;12.60;2.60;;;0.20;99.90;;;;;;6274389;22;20014;-83
2023/03/11 01:06:14;;;;;;;8.52;2.58;;;0.20;99.90;;;;;;6247327;22;20016;-84
2023/03/11 01:08:40;;;;;;;13.65;2.60;;;0.10;99.90;;;;;;6246854;22;20019;-82
2023/03/11 01:11:07;;;;;;;12.32;2.60;;;0.10;99.90;;;;;;6247069;22;20137;-83
2023/03/11 01:13:33;;;;;;;8.18;2.30;;;0.10;99.90;;;;;;6221417;22;20020;-83
2023/03/11 01:15:59;;;;;;;8.43;2.40;;;0.10;99.90;;;;;;6246577;22;20091;-84
2023/03/11 01:18:26;;;;;;;9.65;2.25;;;0.10;99.90;;;;;;6246640;22;20058;-83
2023/03/11 01:20:52;;;;;;;9.63;2.30;;;0.10;99.90;;;;;;6221811;22;20012;-82
2023/03/11 01:23:18;;;;;;;9.35;2.60;;;0.10;99.90;;;;;;6246125;22;20098;-82
2023/03/11 01:25:44;;;;;;;15.25;2.80;;;0.00;99.90;;;;;;6274620;22;20019;-83
2023/03/11 01:28:10;;;;;;;9.13;2.38;;;0.00;99.90;;;;;;6246827;22;20050;-83
2023/03/11 01:30:38;;;;;;;13.68;2.72;;;0.00;99.90;;;;;;6221421;22;20012;-83
2023/03/11 01:33:05;;;;;;;7.90;2.20;;;0.00;99.90;;;;;;6221914;22;20315;-83
2023/03/11 01:35:32;;;;;;;10.43;2.70;;;0.50;99.90;;;;;;6274577;22;20011;-82
2023/03/11 01:37:58;;;;;;;10.13;2.75;;;0.00;99.90;;;;;;6246185;22;20054;-83
2023/03/11 01:40:34;;;;;;;10.10;2.67;;;0.00;99.90;;;;;;6274678;22;20019;-83
2023/03/11 01:43:02;;;;;;;9.48;2.70;;;0.00;99.90;;;;;;6221682;22;20369;-83
2023/03/11 01:45:48;;;;;;;8.95;2.88;;;0.00;99.90;;;;;;6221483;22;20332;-83
2023/03/11 01:48:14;;;;;;;12.80;2.85;;;0.00;99.90;;;;;;6274896;22;20012;-81
2023/03/11 01:50:48;;;;;;;13.98;2.55;;;-0.10;99.90;;;;;;6246772;22;20015;-82
2023/03/11 01:53:16;;;;;;;10.60;2.63;;;-0.10;99.90;;;;;;6221205;22;20023;-83
2023/03/11 01:55:42;;;;;;;10.07;2.42;;;-0.10;99.90;;;;;;6273985;22;20454;-83
2023/03/11 01:58:12;;;;;;;8.55;2.50;;;0.00;99.90;;;;;;6221289;22;20012;-83
2023/03/11 02:00:40;;;;;;;9.20;2.10;;;-0.10;99.90;;;;;;6247255;22;20016;-83
2023/03/11 02:03:14;;;;;;;10.43;2.55;;;-0.10;99.90;;;;;;6274193;22;20046;-82
2023/03/11 02:05:41;;;;;;;9.43;2.33;;;0.60;99.90;;;;;;6221814;22;20370;-83
2023/03/11 02:08:07;;;;;;;14.07;2.88;;;-0.10;99.90;;;;;;6222331;22;20126;-82
2023/03/11 02:10:33;;;;;;;11.52;2.38;;;0.30;99.90;;;;;;6275987;22;20526;-83
2023/03/11 02:12:59;;;;;;;10.98;2.45;;;-0.20;99.90;;;;;;6223271;22;20043;-83
2023/03/11 02:15:25;;;;;;;8.50;2.33;;;-0.30;99.90;;;;;;6223161;22;20012;-83
2023/03/11 02:17:52;;;;;;;8.93;2.10;;;-0.30;99.90;;;;;;6248785;22;20065;-84
2023/03/11 02:20:45;;;;;;;18.02;2.90;;;-0.40;99.90;;;;;;6276620;22;20003;-83
2023/03/11 02:23:13;;;;;;;8.82;2.33;;;-0.40;99.90;;;;;;6223815;22;20347;-83
2023/03/11 02:26:13;;;;;;;10.20;2.55;;;-0.60;99.90;;;;;;6249112;22;20043;-83
2023/03/11 02:28:40;;;;;;;8.52;2.70;;;-0.60;99.90;;;;;;6229011;22;20084;-83
2023/03/11 02:31:06;;;;;;;8.48;2.60;;;-0.60;99.90;;;;;;6248986;22;20015;-83
2023/03/11 02:33:35;;;;;;;11.05;2.65;;;-0.60;99.90;;;;;;6249115;22;20023;-84
2023/03/11 02:36:01;;;;;;;9.23;2.42;;;-0.60;99.90;;;;;;6275828;22;20126;-83
2023/03/11 02:38:26;;;;;;;7.90;1.85;;;-0.70;99.90;;;;;;6276638;22;20453;-83
2023/03/11 02:40:56;;;;;;;8.48;2.22;;;-0.80;99.90;;;;;;6248962;22;20047;-83
2023/03/11 02:43:32;;;;;;;11.13;2.60;;;-0.80;99.90;;;;;;6249573;22;20031;-83
2023/03/11 02:45:58;;;;;;;11.23;2.00;;;-0.80;99.90;;;;;;6223536;22;20034;-83
2023/03/11 02:48:24;;;;;;;10.88;2.17;;;-0.80;99.90;;;;;;6276712;22;20121;-84
2023/03/11 02:50:51;;;;;;;12.93;2.45;;;-0.80;99.90;;;;;;6275422;22;20021;-84
2023/03/11 02:53:16;;;;;;;8.52;2.58;;;-0.80;99.90;;;;;;6249229;22;20039;-84
2023/03/11 02:55:42;;;;;;;8.43;2.30;;;-0.80;99.90;;;;;;6249095;22;20015;-84
2023/03/11 02:58:08;;;;;;;12.25;2.80;;;-0.80;99.90;;;;;;6248849;22;20011;-84
2023/03/11 03:00:33;;;;;;;9.55;2.50;;;-0.90;99.90;;;;;;6249075;22;20444;-83
2023/03/11 03:02:59;;;;;;;8.40;2.25;;;-0.90;99.90;;;;;;6248831;22;20022;-84
2023/03/11 03:05:25;;;;;;;8.07;2.70;;;-1.00;99.90;;;;;;6223377;22;20397;-83
2023/03/11 03:07:50;;;;;;;8.55;2.13;;;-1.10;99.90;;;;;;6276943;22;20041;-83
2023/03/11 03:10:18;;;;;;;9.35;2.58;;;-1.30;99.90;;;;;;6248946;22;20019;-83
2023/03/11 03:12:43;;;;;;;11.73;2.63;;;-1.30;99.90;;;;;;6224193;22;20012;-84
2023/03/11 03:15:10;;;;;;;7.63;2.65;;;-1.40;99.90;;;;;;6249541;22;20098;-83
2023/03/11 03:17:36;;;;;;;7.85;2.35;;;-1.50;99.90;;;;;;6248962;22;20008;-83
2023/03/11 03:20:05;;;;;;;5.95;2.45;;;-1.60;99.90;;;;;;6248217;22;20089;-83
2023/03/11 03:22:30;;;;;;;15.25;2.80;;;-1.60;99.90;;;;;;6249250;22;20331;-83
2023/03/11 03:24:56;;;;;;;10.73;2.72;;;-1.70;99.90;;;;;;6249238;22;20050;-83
2023/03/11 03:27:21;;;;;;;8.48;2.42;;;-1.70;99.90;;;;;;6249303;22;20097;-84
2023/03/11 03:29:47;;;;;;;10.13;2.47;;;-1.80;99.90;;;;;;6248834;22;20083;-82
2023/03/11 03:32:13;;;;;;;9.65;2.85;;;-1.80;99.90;;;;;;6276013;22;20466;-83
2023/03/11 03:34:38;;;;;;;11.18;3.00;;;-1.90;99.90;;;;;;6248206;22;20011;-83
2023/03/11 03:37:04;;;;;;;6.38;2.50;;;-1.90;99.90;;;;;;6276849;22;20019;-84
2023/03/11 03:39:31;;;;;;;10.07;2.78;;;-2.00;99.90;;;;;;6223629;22;20022;-84
2023/03/11 03:41:57;;;;;;;8.52;2.42;;;-2.00;99.90;;;;;;6276190;22;20019;-84
2023/03/11 03:44:23;;;;;;;9.65;2.60;;;-2.10;99.90;;;;;;6249141;22;20015;-84
2023/03/11 03:46:48;;;;;;;5.68;2.40;;;-1.60;99.90;;;;;;6249349;22;20439;-84
2023/03/11 03:49:14;;;;;;;11.13;2.63;;;-2.20;99.90;;;;;;6275779;22;20500;-83
2023/03/11 03:51:40;;;;;;;11.65;2.83;;;-2.30;99.90;;;;;;6223149;22;20018;-83
2023/03/11 03:54:05;;;;;;;7.75;3.10;;;-2.30;99.90;;;;;;6248384;22;20039;-83
2023/03/11 03:56:31;;;;;;;11.30;3.17;;;-2.40;99.90;;;;;;6223732;22;20015;-83
2023/03/11 03:58:56;;;;;;;10.10;3.05;;;-2.40;99.90;;;;;;6276303;22;20015;-82
2023/03/11 04:01:22;;;;;;;6.85;3.38;;;-2.50;99.90;;;;;;6248766;22;20030;-83
2023/03/11 04:03:47;;;;;;;10.70;3.08;;;-2.50;99.90;;;;;;6247774;22;20363;-83
2023/03/11 04:06:23;;;;;;;10.95;2.95;;;-2.50;99.90;;;;;;6248390;22;20016;-83
2023/03/11 04:08:51;;;;;;;8.43;4.00;;;-2.60;99.90;;;;;;6248351;22;20071;-83
2023/03/11 04:11:17;;;;;;;8.27;3.13;;;-2.60;99.90;;;;;;6248643;22;20073;-83
2023/03/11 04:13:43;;;;;;;11.18;3.70;;;-2.60;99.90;;;;;;6248268;22;20015;-83
2023/03/11 04:16:16;;;;;;;9.20;3.53;;;-2.70;99.90;;;;;;6275639;22;20082;-83
2023/03/11 04:18:41;;;;;;;11.60;3.20;;;-2.70;99.90;;;;;;6247518;22;20015;-82
2023/03/11 04:21:07;;;;;;;13.55;3.50;;;-2.70;99.90;;;;;;6275823;22;20308;-83
2023/03/11 04:23:33;;;;;;;10.43;3.53;;;-2.70;99.90;;;;;;6248338;22;20016;-83
2023/03/11 04:25:59;;;;;;;9.82;3.30;;;-2.70;99.90;;;;;;6276230;22;20037;-82
2023/03/11 04:28:25;;;;;;;13.57;3.47;;;-2.70;99.90;;;;;;6275250;22;20037;-82
2023/03/11 04:30:51;;;;;;;14.57;4.18;;;-2.70;99.90;;;;;;6247378;22;20466;-83
2023/03/11 04:33:16;;;;;;;8.90;3.30;;;-2.70;99.90;;;;;;6247403;22;20027;-81
2023/03/11 04:35:42;;;;;;;12.13;3.85;;;-2.70;99.90;;;;;;6247988;22;20015;-83
2023/03/11 04:38:08;;;;;;;6.40;3.13;;;-2.70;99.90;;;;;;6249375;22;20004;-82
2023/03/11 04:40:33;;;;;;;8.10;3.55;;;-2.70;99.90;;;;;;6247935;22;20016;-83
2023/03/11 04:42:59;;;;;;;8.85;3.55;;;-2.70;99.90;;;;;;6247662;22;20011;-81
2023/03/11 04:45:24;;;;;;;12.63;3.70;;;-2.80;99.90;;;;;;6248172;22;20012;-82
2023/03/11 04:47:50;;;;;;;8.98;3.38;;;-2.80;99.90;;;;;;6247903;22;20008;-83
2023/03/11 04:50:17;;;;;;;12.02;3.92;;;-2.90;99.90;;;;;;6222037;22;20091;-83
2023/03/11 04:52:43;;;;;;;9.73;3.40;;;-2.90;99.90;;;;;;6221310;22;20042;-83
2023/03/11 04:55:09;;;;;;;10.80;3.83;;;-3.00;99.90;;;;;;6221233;22;20011;-83
2023/03/11 04:57:35;;;;;;;7.13;3.38;;;-3.00;99.90;;;;;;6221281;22;20016;-82
2023/03/11 05:00:05;;;;;;;18.35;3.50;;;-3.00;99.90;;;;;;6221215;22;20012;-82
2023/03/11 05:02:30;;;;;;;8.02;3.55;;;-3.10;99.90;;;;;;6273358;22;20042;-82
2023/03/11 05:04:56;;;;;;;7.25;3.00;;;-3.10;99.90;;;;;;6221205;22;20019;-83
2023/03/11 05:07:23;;;;;;;9.45;3.20;;;-3.10;99.90;;;;;;6221241;22;20012;-83
2023/03/11 05:09:48;;;;;;;6.22;2.90;;;-3.10;99.90;;;;;;6246052;22;20023;-82
2023/03/11 05:12:14;;;;;;;5.95;2.88;;;-3.20;99.90;;;;;;6273988;22;20008;-83
2023/03/11 05:14:39;;;;;;;10.13;3.35;;;-3.20;99.90;;;;;;6273182;22;20015;-81
2023/03/11 05:17:05;;;;;;;8.63;2.90;;;-3.20;99.90;;;;;;6246455;22;20015;-82
2023/03/11 05:19:31;;;;;;;7.80;2.95;;;-3.30;99.90;;;;;;6246762;22;20087;-82
2023/03/11 05:22:01;;;;;;;11.10;2.80;;;-3.30;99.90;;;;;;6221027;22;20461;-82
2023/03/11 05:24:27;;;;;;;9.43;3.20;;;-3.30;99.90;;;;;;6221076;22;20008;-82
2023/03/11 05:26:53;;;;;;;10.25;3.30;;;-3.40;99.90;;;;;;6246450;22;20062;-82
2023/03/11 05:29:19;;;;;;;8.05;3.75;;;-3.40;99.90;;;;;;6245721;22;20451;-82
2023/03/11 05:31:45;;;;;;;8.43;3.40;;;-3.40;99.90;;;;;;6246049;22;20020;-81
2023/03/11 05:34:11;;;;;;;8.15;3.47;;;-3.40;99.90;;;;;;6273579;22;20016;-82
2023/03/11 05:36:37;;;;;;;8.32;3.20;;;-3.40;99.90;;;;;;6246320;22;20007;-81
2023/03/11 05:39:03;;;;;;;12.70;3.17;;;-3.50;99.90;;;;;;6246104;22;20020;-82
2023/03/11 05:41:28;;;;;;;12.25;3.38;;;-3.50;99.90;;;;;;6246471;22;20043;-81
2023/03/11 05:43:54;;;;;;;8.05;3.28;;;-3.50;99.90;;;;;;6247273;22;20061;-81
2023/03/11 05:46:19;;;;;;;10.00;3.58;;;-3.60;99.90;;;;;;6248132;22;20058;-81
2023/03/11 05:48:46;;;;;;;9.52;4.05;;;-3.60;99.90;;;;;;6248175;22;20015;-81
2023/03/11 05:51:12;;;;;;;10.75;4.60;;;-3.60;99.90;;;;;;6248083;22;20011;-81
2023/03/11 05:53:41;;;;;;;9.65;4.63;;;-3.00;99.90;;;;;;6275281;22;20007;-82
2023/03/11 05:56:06;;;;;;;14.00;6.00;;;-3.70;99.90;;;;;;6247096;22;20292;-81
2023/03/11 05:58:32;;;;;;;15.32;5.50;;;-3.60;99.90;;;;;;6247311;22;20019;-81
2023/03/11 06:01:00;;;;;;;10.48;4.97;;;-3.60;99.90;;;;;;6246260;22;20007;-81
2023/03/11 06:03:26;;;;;;;11.23;4.68;;;-3.60;99.90;;;;;;6247376;22;20083;-82
2023/03/11 06:05:52;;;;;;;9.95;5.20;;;-3.60;99.90;;;;;;6247944;22;20486;-82
2023/03/11 06:08:18;;;;;;;13.15;4.70;;;-3.60;99.90;;;;;;6276182;22;20086;-82
2023/03/11 06:10:44;;;;;;;10.05;4.40;;;-3.60;99.90;;;;;;6275293;22;20034;-81
2023/03/11 06:13:09;;;;;;;10.63;4.15;;;-3.60;99.90;;;;;;6275053;22;20008;-82
2023/03/11 06:15:36;;;;;;;11.13;3.85;;;-3.60;99.90;;;;;;6248039;22;20134;-82
2023/03/11 06:18:03;;;;;;;11.13;4.13;;;-3.60;99.90;;;;;;6248439;22;20022;-81
2023/03/11 06:20:28;;;;;;;7.53;3.63;;;-3.60;99.90;;;;;;6222884;22;20086;-82
2023/03/11 06:22:54;;;;;;;11.35;3.35;;;-3.60;99.90;;;;;;6275368;22;20035;-81
2023/03/11 06:25:20;;;;;;;8.80;3.40;;;-3.60;99.90;;;;;;6275230;22;20004;-81
2023/03/11 06:27:51;;;;;;;9.30;3.47;;;-3.60;99.90;;;;;;6274676;22;20003;-81
2023/03/11 06:30:18;;;;;;;9.82;3.80;;;-3.50;99.90;;;;;;6247703;22;20011;-82
2023/03/11 06:32:45;;;;;;;7.63;3.47;;;-3.50;99.90;;;;;;6247670;22;20030;-81
2023/03/11 06:35:11;;;;;;;11.30;3.83;;;-3.50;99.90;;;;;;6247720;22;20090;-82
2023/03/11 06:37:37;;;;;;;7.53;3.40;;;-3.50;99.90;;;;;;6247821;22;20448;-81
2023/03/11 06:40:04;;;;;;;11.10;3.70;;;-3.50;99.90;;;;;;6274681;22;20020;-81
2023/03/11 06:42:30;;;;;;;11.82;3.47;;;-3.40;99.90;;;;;;6247212;22;20094;-81
2023/03/11 06:44:56;;;;;;;10.52;3.90;;;-3.40;99.90;;;;;;6274942;22;20031;-81
2023/03/11 06:47:21;;;;;;;7.30;3.55;;;-3.30;99.90;;;;;;6274919;22;20011;-80
2023/03/11 06:49:48;;;;;;;7.50;4.57;;;-3.30;99.90;;;;;;6274443;22;20384;-80
2023/03/11 06:52:14;;;;;;;12.40;4.18;;;-3.30;99.90;;;;;;6247508;22;20012;-80
2023/03/11 06:54:40;;;;;;;10.93;4.43;;;-3.20;99.90;;;;;;6247240;22;20129;-81
2023/03/11 06:57:07;;;;;;;10.30;3.60;;;-3.20;99.90;;;;;;6274037;22;20011;-81
2023/03/11 06:59:33;;;;;;;7.75;3.72;;;-3.20;99.90;;;;;;6247243;22;20118;-79
2023/03/11 07:01:58;;;;;;;7.43;3.55;;;-3.00;99.90;;;;;;6274840;22;20106;-80
2023/03/11 07:04:24;;;;;;;12.88;3.88;;;-3.00;99.90;;;;;;6274947;22;20011;-81
2023/03/11 07:06:50;;;;;;;9.05;3.45;;;-2.30;99.90;;;;;;6247868;22;20008;-80
2023/03/11 07:09:15;;;;;;;7.50;2.97;;;-2.80;99.90;;;;;;6247598;22;20140;-80
2023/03/11 07:11:42;;;;;;;8.13;3.20;;;-2.70;99.90;;;;;;6273760;22;20087;-80
2023/03/11 07:14:07;;;;;;;7.93;2.95;;;-2.60;99.90;;;;;;6247550;22;20011;-80
2023/03/11 07:16:33;;;;;;;9.88;3.28;;;-2.50;99.90;;;;;;6274357;22;20328;-80
2023/03/11 07:19:01;;;;;;;8.63;3.47;;;-2.40;99.90;;;;;;6246952;22;20020;-81
2023/03/11 07:21:28;;;;;;;10.27;3.20;;;-2.30;99.90;;;;;;6274701;22;20347;-81
2023/03/11 07:23:56;;;;;;;14.88;3.67;;;-2.10;99.90;;;;;;6274691;22;20007;-81
2023/03/11 07:26:23;;;;;;;8.73;3.38;;;-2.00;99.90;;;;;;6246328;22;20450;-81
2023/03/11 07:28:48;;;;;;;6.75;3.33;;;-2.00;99.90;;;;;;6247230;22;20011;-81
2023/03/11 07:31:20;;;;;;;7.93;3.00;;;-1.90;99.90;;;;;;6246497;22;20019;-80
2023/03/11 07:33:46;;;;;;;13.60;3.53;;;-1.90;99.90;;;;;;6247178;22;20095;-81
2023/03/11 07:36:14;;;;;;;9.93;3.63;;;-1.80;99.90;;;;;;6274496;22;20042;-81
2023/03/11 07:38:41;;;;;;;11.38;3.78;;;-1.80;99.90;;;;;;6246763;22;20058;-81
2023/03/11 07:41:08;;;;;;;9.48;3.40;;;-1.70;99.90;;;;;;6273741;22;20007;-81
2023/03/11 07:43:33;;;;;;;9.38;3.33;;;-1.60;99.90;;;;;;6246919;22;20012;-81
2023/03/11 07:46:05;;;;;;;10.48;3.90;;;-1.60;99.90;;;;;;6221454;22;20011;-79
2023/03/11 07:48:31;;;;;;;11.07;3.47;;;-1.50;99.90;;;;;;6247202;22;20090;-81
2023/03/11 07:51:05;;;;;;;10.38;3.67;;;-1.50;99.90;;;;;;6246778;22;20450;-81
2023/03/11 07:53:31;;;;;;;9.57;4.05;;;-1.50;99.90;;;;;;6221605;22;20076;-82
2023/03/11 07:55:58;;;;;;;11.98;3.50;;;-1.40;99.90;;;;;;6273702;22;20051;-81
2023/03/11 07:58:24;;;;;;;9.88;2.80;;;-1.40;99.90;;;;;;6246693;22;20011;-81
2023/03/11 08:00:50;;;;;;;8.20;3.05;;;-1.30;99.90;;;;;;6274373;22;20369;-82
2023/03/11 08:03:16;;;;;;;9.13;3.25;;;-1.30;99.90;;;;;;6274251;22;20079;-83
2023/03/11 08:05:42;;;;;;;9.52;3.10;;;-1.30;99.90;;;;;;6274302;22;20177;-82
2023/03/11 08:08:08;;;;;;;6.22;3.08;;;-1.20;99.90;;;;;;6273705;22;20011;-82
2023/03/11 08:10:38;;;;;;;9.13;3.50;;;-1.10;99.90;;;;;;6220906;22;20493;-82
2023/03/11 08:13:04;;;;;;;8.85;3.00;;;-1.10;99.90;;;;;;6247592;22;20058;-82
2023/03/11 08:15:29;;;;;;;9.88;3.33;;;-1.10;99.90;;;;;;6247456;22;20007;-82
2023/03/11 08:17:55;;;;;;;18.45;4.35;;;-1.00;99.90;;;;;;6246893;22;20007;-81
2023/03/11 08:20:21;;;;;;;7.97;3.60;;;-1.00;99.90;;;;;;6246654;22;20008;-81
2023/03/11 08:22:46;;;;;;;12.32;3.53;;;-0.90;99.90;;;;;;6274178;22;20116;-81
2023/03/11 08:25:12;;;;;;;10.70;3.53;;;-0.90;99.90;;;;;;6245995;22;20415;-80
2023/03/11 08:27:38;;;;;;;11.63;3.50;;;-0.90;99.90;;;;;;6274245;22;20431;-81
2023/03/11 08:30:05;;;;;;;9.80;3.42;;;-0.80;99.90;;;;;;6274082;22;20016;-83
2023/03/11 08:32:31;;;;;;;8.13;3.53;;;-0.70;99.90;;;;;;6246161;22;20015;-82
2023/03/11 08:34:57;;;;;;;8.85;3.65;;;-0.70;99.90;;;;;;6246384;22;20011;-82
2023/03/11 08:37:23;;;;;;;11.15;3.75;;;-0.60;99.90;;;;;;6246808;22;20035;-81
2023/03/11 08:39:49;;;;;;;11.48;3.60;;;-0.50;99.90;;;;;;6245705;22;20438;-82
2023/03/11 08:42:16;;;;;;;9.95;4.20;;;-0.50;99.90;;;;;;6246353;22;20050;-82
2023/03/11 08:44:41;;;;;;;10.82;3.35;;;-0.40;99.90;;;;;;6246745;22;20008;-82
2023/03/11 08:47:07;;;;;;;11.88;3.47;;;-0.40;99.90;;;;;;6246482;22;20019;-81
2023/03/11 08:49:32;;;;;;;8.98;3.47;;;-0.30;99.90;;;;;;6246189;22;20015;-82
2023/03/11 08:51:58;;;;;;;9.75;3.28;;;-0.30;99.90;;;;;;6246300;22;20022;-82
2023/03/11 08:54:24;;;;;;;13.32;3.92;;;-0.20;99.90;;;;;;6273216;22;20011;-82
2023/03/11 08:56:49;;;;;;;11.80;3.55;;;-0.10;99.90;;;;;;6273761;22;20019;-82
2023/03/11 08:59:15;;;;;;;12.10;3.05;;;0.00;99.90;;;;;;6246455;22;20373;-82
2023/03/11 09:01:41;;;;;;;8.75;3.00;;;0.00;99.90;;;;;;6245361;22;20007;-82
2023/03/11 09:04:07;;;;;;;11.10;2.83;;;0.20;99.90;;;;;;6245566;22;20004;-82
2023/03/11 09:06:33;;;;;;;13.98;3.55;;;0.10;99.90;;;;;;6273716;22;20015;-83
2023/03/11 09:08:58;;;;;;;9.82;3.13;;;0.20;99.90;;;;;;6273234;22;20015;-83
2023/03/11 09:11:24;;;;;;;7.97;2.97;;;0.20;99.90;;;;;;6246241;22;20469;-82
2023/03/11 09:13:50;;;;;;;12.20;3.28;;;0.30;99.90;;;;;;6273852;22;20015;-83
2023/03/11 09:16:21;;;;;;;6.68;3.03;;;1.50;99.90;;;;;;6273681;22;20011;-82
2023/03/11 09:18:48;;;;;;;12.73;2.97;;;0.40;99.90;;;;;;6247706;22;20016;-83
2023/03/11 09:21:14;;;;;;;8.88;3.17;;;0.50;99.90;;;;;;6247703;22;20481;-82
2023/03/11 09:23:40;;;;;;;9.63;3.15;;;0.50;99.90;;;;;;6222510;22;20012;-82
2023/03/11 09:26:05;;;;;;;7.32;2.67;;;0.60;99.90;;;;;;6222777;22;20022;-82
2023/03/11 09:28:31;;;;;;;11.30;3.15;;;0.70;99.90;;;;;;6248982;22;20007;-83
2023/03/11 09:30:57;;;;;;;10.68;2.90;;;0.70;99.90;;;;;;6247876;22;20114;-84
2023/03/11 09:33:23;;;;;;;10.60;3.10;;;0.80;99.90;;;;;;6248303;22;20023;-84
2023/03/11 09:35:49;;;;;;;7.40;2.90;;;0.90;99.90;;;;;;6222125;22;20090;-82
2023/03/11 09:38:14;;;;;;;11.52;3.55;;;1.00;99.90;;;;;;6247776;22;20039;-82
2023/03/11 09:41:04;;;;;;;11.15;3.20;;;1.00;99.90;;;;;;6275279;22;20039;-82
2023/03/11 09:43:51;;;;;;;9.25;3.45;;;1.10;99.90;;;;;;6248009;22;20007;-82
2023/03/11 09:46:34;;;;;;;9.02;2.95;;;1.10;99.90;;;;;;6247833;22;20058;-82
2023/03/11 09:49:25;;;;;;;16.98;3.33;;;1.20;99.90;;;;;;6222614;22;20402;-82
2023/03/11 09:52:03;;;;;;;11.68;3.00;;;1.30;99.90;;;;;;6274746;22;20391;-82
2023/03/11 09:54:35;;;;;;;9.25;2.85;;;1.80;99.90;;;;;;6222532;22;20014;-82
2023/03/11 09:57:03;;;;;;;13.65;3.30;;;1.40;99.90;;;;;;6247658;22;20449;-82
2023/03/11 09:59:32;;;;;;;13.38;3.63;;;1.50;99.90;;;;;;6275301;22;20008;-82
2023/03/11 10:01:59;;;;;;;9.68;2.60;;;1.50;99.90;;;;;;6247559;22;20019;-82
2023/03/11 10:04:46;;;;;;;12.85;3.38;;;1.60;99.90;;;;;;6247957;22;20018;-83
2023/03/11 10:07:20;;;;;;;10.57;3.25;;;1.60;99.90;;;;;;6275192;22;20018;-82
2023/03/11 10:09:58;;;;;;;16.23;3.38;;;1.70;99.90;;;;;;6275149;22;20008;-82
2023/03/11 10:12:30;;;;;;;11.52;3.17;;;1.70;99.90;;;;;;6275089;22;20462;-82
2023/03/11 10:15:01;;;;;;;9.73;3.10;;;1.80;99.90;;;;;;6275126;22;20342;-83
2023/03/11 10:17:33;;;;;;;7.95;3.08;;;1.90;99.90;;;;;;6247619;22;20012;-82
2023/03/11 10:20:18;;;;;;;10.45;3.20;;;1.90;99.90;;;;;;6247061;22;20085;-82
2023/03/11 10:22:56;;;;;;;8.85;3.08;;;2.00;99.90;;;;;;6246623;22;20020;-83
2023/03/11 10:25:30;;;;;;;9.70;2.42;;;2.10;99.90;;;;;;6222445;22;20367;-82
2023/03/11 10:28:12;;;;;;;9.35;3.00;;;2.10;99.90;;;;;;6247625;22;20014;-83
2023/03/11 10:30:46;;;;;;;8.68;3.47;;;2.20;99.90;;;;;;6274622;22;20418;-83
2023/03/11 10:33:18;;;;;;;7.55;2.65;;;2.20;99.90;;;;;;6275105;22;20016;-83
2023/03/11 10:35:47;;;;;;;10.10;2.92;;;2.30;99.90;;;;;;6247495;22;20047;-81
2023/03/11 10:38:34;;;;;;;11.73;2.90;;;2.30;99.90;;;;;;6275116;22;20011;-81
2023/03/11 10:41:05;;;;;;;10.48;2.95;;;2.30;99.90;;;;;;6275052;22;20011;-82
2023/03/11 10:43:43;;;;;;;8.85;2.90;;;2.40;99.90;;;;;;6275374;22;20004;-82
2023/03/11 10:46:28;;;;;;;10.68;2.67;;;2.50;99.90;;;;;;6248181;22;20004;-81
2023/03/11 10:48:54;;;;;;;8.52;2.75;;;2.60;99.90;;;;;;6247290;22;20027;-82
2023/03/11 10:51:22;;;;;;;9.73;3.20;;;2.70;99.90;;;;;;6222371;22;20089;-81
2023/03/11 10:53:51;;;;;;;12.38;2.90;;;2.80;99.90;;;;;;6247813;22;20023;-82
2023/03/11 10:56:38;;;;;;;8.43;2.30;;;2.80;99.90;;;;;;6275187;22;20015;-81
2023/03/11 10:59:23;;;;;;;7.72;2.83;;;2.90;99.90;;;;;;6247943;22;20351;-81
2023/03/11 11:02:01;;;;;;;11.98;3.08;;;2.90;99.90;;;;;;6247722;22;20007;-81
2023/03/11 11:04:39;;;;;;;11.70;3.45;;;3.00;99.90;;;;;;6247118;22;20012;-81
2023/03/11 11:07:29;;;;;;;11.05;3.00;;;3.10;99.90;;;;;;6247800;22;20004;-81
2023/03/11 11:10:24;;;;;;;8.07;2.75;;;3.30;99.90;;;;;;6274837;22;20046;-81
2023/03/11 11:13:03;;;;;;;14.73;4.68;;;3.40;99.90;;;;;;6247859;22;20012;-82
2023/03/11 11:15:33;;;;;;;9.73;2.92;;;3.50;99.90;;;;;;6247660;22;20015;-82
2023/03/11 11:18:41;;;;;;;11.45;3.78;;;3.50;99.90;;;;;;6221538;22;20011;-82
2023/03/11 11:21:15;;;;;;;11.50;3.38;;;3.60;99.90;;;;;;6254075;22;20019;-82
2023/03/11 11:23:42;;;;;;;;;;;3.60;99.90;;;;;;6247775;22;20078;-81
2023/03/11 11:26:34;;;;;;;7.50;3.22;;;3.60;99.90;;;;;;6221958;22;19911;-81
2023/03/11 11:29:26;;;;;;;16.98;4.05;;;3.70;99.90;;;;;;6241759;22;20012;-82
2023/03/11 11:31:52;;;;;;;13.38;3.58;;;3.80;99.90;;;;;;6266424;22;20077;-81
2023/03/11 11:34:31;;;;;;;7.60;3.05;;;3.80;99.90;;;;;;6274402;22;20019;-82
2023/03/11 11:37:00;;;;;;;10.98;3.13;;;3.80;99.90;;;;;;6274227;22;20435;-82
2023/03/11 11:39:29;;;;;;;7.03;2.92;;;3.90;99.90;;;;;;6246939;22;20473;-81
2023/03/11 11:41:55;;;;;;;9.38;2.72;;;3.80;99.90;;;;;;6273887;22;20012;-82
2023/03/11 11:44:28;;;;;;;6.05;2.83;;;3.80;99.90;;;;;;6274681;22;20003;-81
2023/03/11 11:47:06;;;;;;;7.30;2.97;;;3.80;99.90;;;;;;6220935;22;20012;-83
2023/03/11 11:49:33;;;;;;;7.72;2.83;;;3.90;99.90;;;;;;6247388;22;20065;-82
2023/03/11 11:52:10;;;;;;;7.47;2.70;;;4.00;99.90;;;;;;6246657;22;20016;-82
2023/03/11 11:54:48;;;;;;;11.75;2.80;;;4.00;99.90;;;;;;6246594;22;20008;-82
2023/03/11 11:57:20;;;;;;;9.32;2.58;;;4.10;99.90;;;;;;6274180;22;20037;-81
2023/03/11 11:59:46;;;;;;;12.52;3.72;;;4.10;99.90;;;;;;6274097;22;20068;-81
2023/03/11 12:02:15;;;;;;;10.25;2.42;;;4.10;99.90;;;;;;6246469;22;20090;-82
2023/03/11 12:04:59;;;;;;;6.25;2.30;;;4.20;99.90;;;;;;6246363;22;20008;-81
2023/03/11 12:07:43;;;;;;;11.07;2.40;;;4.20;99.90;;;;;;6246434;22;20019;-81
2023/03/11 12:10:14;;;;;;;;;;;4.20;99.90;;;;;;6247052;22;20128;-80
2023/03/11 12:13:13;;;;;;;13.63;3.13;;;4.20;99.90;;;;;;6221166;22;19934;-82
2023/03/11 12:15:46;;;;;;;5.85;2.60;;;4.20;99.90;;;;;;6273444;22;20018;-81
2023/03/11 12:18:37;;;;;;;12.00;3.80;;;4.20;99.90;;;;;;6246998;22;20018;-80
2023/03/11 12:21:30;;;;;;;7.05;2.65;;;4.30;99.90;;;;;;6273842;22;20095;-81
2023/03/11 12:24:24;;;;;;;10.30;2.80;;;4.30;99.90;;;;;;6273340;22;20090;-80
2023/03/11 12:26:52;;;;;;;7.88;3.00;;;4.40;99.90;;;;;;6273711;22;20076;-80
2023/03/11 12:29:41;;;;;;;10.48;2.28;;;4.50;99.90;;;;;;6220347;22;20013;-81
2023/03/11 12:32:17;;;;;;;6.70;2.70;;;4.60;99.90;;;;;;6245753;22;20018;-81
2023/03/11 12:34:42;;;;;;;9.07;2.83;;;4.60;99.90;;;;;;6246691;22;20023;-81
2023/03/11 12:37:13;;;;;;;7.47;2.00;;;4.60;99.90;;;;;;6221160;22;20008;-81
2023/03/11 12:39:39;;;;;;;5.35;2.00;;;4.60;99.90;;;;;;6220810;22;20335;-82
2023/03/11 12:42:15;;;;;;;5.97;1.95;;;4.50;99.90;;;;;;6272205;22;20026;-81
2023/03/11 12:44:41;;;;;;;6.10;1.80;;;4.50;99.90;;;;;;6244136;22;20057;-81
2023/03/11 12:47:07;;;;;;;10.70;2.22;;;4.50;99.90;;;;;;6244328;22;19999;-81
2023/03/11 12:49:44;;;;;;;5.50;2.13;;;4.50;99.90;;;;;;6244526;22;20053;-81
2023/03/11 12:52:12;;;;;;;12.32;2.45;;;4.50;99.90;;;;;;6219288;22;20026;-81
2023/03/11 12:54:47;;;;;;;8.15;2.00;;;4.50;99.90;;;;;;6272114;22;20023;-81
2023/03/11 12:57:16;;;;;;;6.90;1.75;;;4.50;99.90;;;;;;6273778;22;20039;-81